Pittsburg, California
Current Conditions -  °F | °C
As of 5:53 PM on Thursday 20 Nov 2014 (Local Time) from KCCR Reporting Station
Light Rain Light Rain  
Wind Chill: 13°   Ceiling: 5000
Heat Index: 13°   Visibility: 4mi
Dew Point: 12°   Wind: 7mph
Humidity: 96%   Direction: 140°SE
Pressure: 30"   Gusts: NA
Location:  38.02°N, 121.88°W
Report Text: KCCR 210153Z 14006KT 4SM -RA BR BKN050 OVC090 13/12 A3000 RMK AO2 SLP144 P0010 T01280122
Loading
Personal Weather Stations






























Interactive Weather Map New forecast layout! Learn more

10-Day Weather Forecast

Advertisements
Track Severe Weather on mobile